sensor_id;sensor_type;location;lat;lon;timestamp;P1;durP1;ratioP1;P2;durP2;ratioP2
21593;SDS011;10959;51.328;7.322;2022-10-19T00:00:14;7.27;;;3.63;;
21593;SDS011;10959;51.328;7.322;2022-10-19T00:02:40;7.87;;;4.00;;
21593;SDS011;10959;51.328;7.322;2022-10-19T00:05:07;7.27;;;3.47;;
21593;SDS011;10959;51.328;7.322;2022-10-19T00:07:34;7.13;;;3.87;;
21593;SDS011;10959;51.328;7.322;2022-10-19T00:10:00;7.93;;;3.90;;
21593;SDS011;10959;51.328;7.322;2022-10-19T00:12:27;7.77;;;4.07;;
21593;SDS011;10959;51.328;7.322;2022-10-19T00:14:54;7.43;;;3.60;;
21593;SDS011;10959;51.328;7.322;2022-10-19T00:17:21;4.77;;;3.53;;
21593;SDS011;10959;51.328;7.322;2022-10-19T00:19:48;5.17;;;3.40;;
21593;SDS011;10959;51.328;7.322;2022-10-19T00:22:14;5.70;;;3.43;;
21593;SDS011;10959;51.328;7.322;2022-10-19T00:24:40;7.90;;;3.60;;
21593;SDS011;10959;51.328;7.322;2022-10-19T00:27:07;7.63;;;3.63;;
21593;SDS011;10959;51.328;7.322;2022-10-19T00:29:33;13.60;;;3.57;;
21593;SDS011;10959;51.328;7.322;2022-10-19T00:32:01;6.40;;;3.83;;
21593;SDS011;10959;51.328;7.322;2022-10-19T00:34:27;6.43;;;3.33;;
21593;SDS011;10959;51.328;7.322;2022-10-19T00:36:54;5.60;;;3.40;;
21593;SDS011;10959;51.328;7.322;2022-10-19T00:39:20;6.43;;;3.77;;
21593;SDS011;10959;51.328;7.322;2022-10-19T00:41:47;4.83;;;3.47;;
21593;SDS011;10959;51.328;7.322;2022-10-19T00:47:19;5.83;;;3.73;;
21593;SDS011;10959;51.328;7.322;2022-10-19T00:49:48;10.80;;;3.53;;
21593;SDS011;10959;51.328;7.322;2022-10-19T00:52:16;6.00;;;3.37;;
21593;SDS011;10959;51.328;7.322;2022-10-19T00:54:45;6.03;;;4.07;;
21593;SDS011;10959;51.328;7.322;2022-10-19T00:57:12;6.10;;;3.63;;
21593;SDS011;10959;51.328;7.322;2022-10-19T00:59:39;6.77;;;3.73;;
21593;SDS011;10959;51.328;7.322;2022-10-19T01:02:08;6.70;;;3.67;;
21593;SDS011;10959;51.328;7.322;2022-10-19T01:04:37;4.03;;;3.60;;
21593;SDS011;10959;51.328;7.322;2022-10-19T01:07:09;7.97;;;3.30;;
21593;SDS011;10959;51.328;7.322;2022-10-19T01:09:36;5.53;;;4.03;;
21593;SDS011;10959;51.328;7.322;2022-10-19T01:12:05;5.83;;;4.10;;
21593;SDS011;10959;51.328;7.322;2022-10-19T01:14:37;7.53;;;3.90;;
21593;SDS011;10959;51.328;7.322;2022-10-19T01:17:15;6.67;;;4.40;;
21593;SDS011;10959;51.328;7.322;2022-10-19T01:22:59;5.57;;;4.17;;
21593;SDS011;10959;51.328;7.322;2022-10-19T01:25:38;7.70;;;4.77;;
21593;SDS011;10959;51.328;7.322;2022-10-19T01:28:23;4.73;;;3.90;;
21593;SDS011;10959;51.328;7.322;2022-10-19T01:31:05;5.17;;;4.07;;
21593;SDS011;10959;51.328;7.322;2022-10-19T01:33:44;6.23;;;3.90;;
21593;SDS011;10959;51.328;7.322;2022-10-19T01:36:17;5.93;;;3.40;;
21593;SDS011;10959;51.328;7.322;2022-10-19T01:38:50;6.97;;;3.73;;
21593;SDS011;10959;51.328;7.322;2022-10-19T01:41:25;5.90;;;3.50;;
21593;SDS011;10959;51.328;7.322;2022-10-19T01:43:59;4.33;;;3.40;;
21593;SDS011;10959;51.328;7.322;2022-10-19T01:46:32;6.37;;;3.97;;
21593;SDS011;10959;51.328;7.322;2022-10-19T01:49:03;7.10;;;3.53;;
21593;SDS011;10959;51.328;7.322;2022-10-19T01:51:36;5.47;;;3.50;;
21593;SDS011;10959;51.328;7.322;2022-10-19T01:54:08;4.63;;;3.57;;
21593;SDS011;10959;51.328;7.322;2022-10-19T01:56:39;5.17;;;3.30;;
21593;SDS011;10959;51.328;7.322;2022-10-19T01:59:07;4.47;;;3.10;;
21593;SDS011;10959;51.328;7.322;2022-10-19T02:01:38;5.97;;;3.00;;
21593;SDS011;10959;51.328;7.322;2022-10-19T02:04:09;6.20;;;3.40;;
21593;SDS011;10959;51.328;7.322;2022-10-19T02:06:38;4.50;;;3.43;;
21593;SDS011;10959;51.328;7.322;2022-10-19T02:09:05;6.73;;;3.27;;
21593;SDS011;10959;51.328;7.322;2022-10-19T02:11:32;4.90;;;3.17;;
21593;SDS011;10959;51.328;7.322;2022-10-19T02:14:03;3.70;;;3.17;;
21593;SDS011;10959;51.328;7.322;2022-10-19T02:16:35;7.50;;;3.33;;
21593;SDS011;10959;51.328;7.322;2022-10-19T02:19:06;4.10;;;3.70;;
21593;SDS011;10959;51.328;7.322;2022-10-19T02:21:33;6.00;;;3.60;;
21593;SDS011;10959;51.328;7.322;2022-10-19T02:24:00;8.03;;;3.30;;
21593;SDS011;10959;51.328;7.322;2022-10-19T02:26:27;6.10;;;3.50;;
21593;SDS011;10959;51.328;7.322;2022-10-19T02:28:53;13.07;;;4.33;;
21593;SDS011;10959;51.328;7.322;2022-10-19T02:31:21;8.20;;;3.93;;
21593;SDS011;10959;51.328;7.322;2022-10-19T02:33:50;6.83;;;3.47;;
21593;SDS011;10959;51.328;7.322;2022-10-19T02:36:16;7.03;;;3.57;;
21593;SDS011;10959;51.328;7.322;2022-10-19T02:38:43;4.20;;;2.93;;
21593;SDS011;10959;51.328;7.322;2022-10-19T02:41:10;8.10;;;3.40;;
21593;SDS011;10959;51.328;7.322;2022-10-19T02:43:43;7.13;;;3.30;;
21593;SDS011;10959;51.328;7.322;2022-10-19T02:46:14;5.90;;;3.10;;
21593;SDS011;10959;51.328;7.322;2022-10-19T02:48:50;4.17;;;3.03;;
21593;SDS011;10959;51.328;7.322;2022-10-19T02:51:27;5.27;;;3.60;;
21593;SDS011;10959;51.328;7.322;2022-10-19T02:53:54;5.13;;;3.70;;
21593;SDS011;10959;51.328;7.322;2022-10-19T02:56:21;6.40;;;3.23;;
21593;SDS011;10959;51.328;7.322;2022-10-19T02:58:47;9.83;;;3.27;;
21593;SDS011;10959;51.328;7.322;2022-10-19T03:01:14;3.83;;;2.90;;
21593;SDS011;10959;51.328;7.322;2022-10-19T03:03:41;4.03;;;2.93;;
21593;SDS011;10959;51.328;7.322;2022-10-19T03:06:09;5.90;;;3.50;;
21593;SDS011;10959;51.328;7.322;2022-10-19T03:08:35;3.93;;;3.37;;
21593;SDS011;10959;51.328;7.322;2022-10-19T03:11:02;4.47;;;3.40;;
21593;SDS011;10959;51.328;7.322;2022-10-19T03:13:28;8.43;;;4.03;;
21593;SDS011;10959;51.328;7.322;2022-10-19T03:15:55;6.33;;;3.40;;
21593;SDS011;10959;51.328;7.322;2022-10-19T03:18:21;6.23;;;3.43;;
21593;SDS011;10959;51.328;7.322;2022-10-19T03:20:48;4.63;;;3.30;;
21593;SDS011;10959;51.328;7.322;2022-10-19T03:23:16;5.90;;;3.13;;
21593;SDS011;10959;51.328;7.322;2022-10-19T03:25:42;11.40;;;4.27;;
21593;SDS011;10959;51.328;7.322;2022-10-19T03:28:08;9.23;;;4.43;;
21593;SDS011;10959;51.328;7.322;2022-10-19T03:30:35;11.20;;;4.17;;
21593;SDS011;10959;51.328;7.322;2022-10-19T03:33:01;7.90;;;3.97;;
21593;SDS011;10959;51.328;7.322;2022-10-19T03:35:28;12.47;;;4.23;;
21593;SDS011;10959;51.328;7.322;2022-10-19T03:37:54;9.80;;;3.97;;
21593;SDS011;10959;51.328;7.322;2022-10-19T03:40:22;11.00;;;3.90;;
21593;SDS011;10959;51.328;7.322;2022-10-19T03:42:49;8.03;;;3.13;;
21593;SDS011;10959;51.328;7.322;2022-10-19T03:45:15;9.73;;;3.40;;
21593;SDS011;10959;51.328;7.322;2022-10-19T03:47:41;43.07;;;5.57;;
21593;SDS011;10959;51.328;7.322;2022-10-19T03:50:08;10.67;;;3.13;;
21593;SDS011;10959;51.328;7.322;2022-10-19T03:52:38;7.43;;;2.70;;
21593;SDS011;10959;51.328;7.322;2022-10-19T03:55:04;9.10;;;2.73;;
21593;SDS011;10959;51.328;7.322;2022-10-19T03:57:33;4.77;;;2.87;;
21593;SDS011;10959;51.328;7.322;2022-10-19T03:59:59;10.23;;;2.67;;
21593;SDS011;10959;51.328;7.322;2022-10-19T04:02:26;15.97;;;4.27;;
21593;SDS011;10959;51.328;7.322;2022-10-19T04:04:52;24.57;;;4.17;;
21593;SDS011;10959;51.328;7.322;2022-10-19T04:07:19;71.03;;;6.57;;
21593;SDS011;10959;51.328;7.322;2022-10-19T04:09:45;62.63;;;5.53;;
21593;SDS011;10959;51.328;7.322;2022-10-19T04:12:12;23.37;;;4.30;;
21593;SDS011;10959;51.328;7.322;2022-10-19T04:14:39;30.23;;;5.20;;
21593;SDS011;10959;51.328;7.322;2022-10-19T04:17:06;41.70;;;5.70;;
21593;SDS011;10959;51.328;7.322;2022-10-19T04:19:32;99.43;;;7.77;;
21593;SDS011;10959;51.328;7.322;2022-10-19T04:21:59;67.87;;;6.37;;
21593;SDS011;10959;51.328;7.322;2022-10-19T04:24:25;11.17;;;3.53;;
21593;SDS011;10959;51.328;7.322;2022-10-19T04:26:52;30.83;;;5.07;;
21593;SDS011;10959;51.328;7.322;2022-10-19T04:29:22;4.07;;;3.50;;
21593;SDS011;10959;51.328;7.322;2022-10-19T04:31:51;11.33;;;3.90;;
21593;SDS011;10959;51.328;7.322;2022-10-19T04:34:18;6.53;;;3.30;;
21593;SDS011;10959;51.328;7.322;2022-10-19T04:36:45;7.80;;;3.17;;
21593;SDS011;10959;51.328;7.322;2022-10-19T04:39:11;3.60;;;3.00;;
21593;SDS011;10959;51.328;7.322;2022-10-19T04:41:38;38.33;;;5.23;;
21593;SDS011;10959;51.328;7.322;2022-10-19T04:44:04;20.47;;;4.17;;
21593;SDS011;10959;51.328;7.322;2022-10-19T04:46:31;80.20;;;6.27;;
21593;SDS011;10959;51.328;7.322;2022-10-19T04:48:59;9.73;;;3.13;;
21593;SDS011;10959;51.328;7.322;2022-10-19T04:51:28;26.43;;;4.00;;
21593;SDS011;10959;51.328;7.322;2022-10-19T04:53:55;9.87;;;3.80;;
21593;SDS011;10959;51.328;7.322;2022-10-19T04:56:23;35.90;;;4.50;;
21593;SDS011;10959;51.328;7.322;2022-10-19T04:58:52;62.10;;;5.57;;
21593;SDS011;10959;51.328;7.322;2022-10-19T05:01:20;97.87;;;7.70;;
21593;SDS011;10959;51.328;7.322;2022-10-19T05:03:47;49.53;;;5.33;;
21593;SDS011;10959;51.328;7.322;2022-10-19T05:06:19;34.47;;;4.13;;
21593;SDS011;10959;51.328;7.322;2022-10-19T05:08:46;44.23;;;5.53;;
21593;SDS011;10959;51.328;7.322;2022-10-19T05:11:13;14.83;;;4.40;;
21593;SDS011;10959;51.328;7.322;2022-10-19T05:13:40;6.73;;;3.87;;
21593;SDS011;10959;51.328;7.322;2022-10-19T05:16:09;32.17;;;5.10;;
21593;SDS011;10959;51.328;7.322;2022-10-19T05:18:37;28.77;;;5.03;;
21593;SDS011;10959;51.328;7.322;2022-10-19T05:21:05;36.33;;;5.63;;
21593;SDS011;10959;51.328;7.322;2022-10-19T05:23:34;38.87;;;5.93;;
21593;SDS011;10959;51.328;7.322;2022-10-19T05:26:02;208.40;;;11.97;;
21593;SDS011;10959;51.328;7.322;2022-10-19T05:28:30;149.70;;;10.70;;
21593;SDS011;10959;51.328;7.322;2022-10-19T05:31:03;56.57;;;6.83;;
21593;SDS011;10959;51.328;7.322;2022-10-19T05:33:32;78.47;;;7.03;;
21593;SDS011;10959;51.328;7.322;2022-10-19T05:35:58;59.57;;;6.10;;
21593;SDS011;10959;51.328;7.322;2022-10-19T05:38:25;58.80;;;6.10;;
21593;SDS011;10959;51.328;7.322;2022-10-19T05:40:53;60.97;;;6.33;;
21593;SDS011;10959;51.328;7.322;2022-10-19T05:43:19;31.83;;;4.70;;
21593;SDS011;10959;51.328;7.322;2022-10-19T05:45:45;71.33;;;6.50;;
21593;SDS011;10959;51.328;7.322;2022-10-19T05:48:12;141.83;;;9.50;;
21593;SDS011;10959;51.328;7.322;2022-10-19T05:50:39;114.93;;;8.33;;
21593;SDS011;10959;51.328;7.322;2022-10-19T05:53:05;12.70;;;3.73;;
21593;SDS011;10959;51.328;7.322;2022-10-19T05:55:33;18.00;;;3.43;;
21593;SDS011;10959;51.328;7.322;2022-10-19T05:58:01;131.47;;;8.10;;
21593;SDS011;10959;51.328;7.322;2022-10-19T06:00:27;60.33;;;5.77;;
21593;SDS011;10959;51.328;7.322;2022-10-19T06:02:54;39.60;;;4.80;;
21593;SDS011;10959;51.328;7.322;2022-10-19T06:05:20;22.60;;;3.83;;
21593;SDS011;10959;51.328;7.322;2022-10-19T06:07:47;79.50;;;7.00;;
21593;SDS011;10959;51.328;7.322;2022-10-19T06:10:13;21.07;;;4.23;;
21593;SDS011;10959;51.328;7.322;2022-10-19T06:12:39;17.43;;;3.87;;
21593;SDS011;10959;51.328;7.322;2022-10-19T06:15:08;37.03;;;5.43;;
21593;SDS011;10959;51.328;7.322;2022-10-19T06:17:35;91.70;;;7.00;;
21593;SDS011;10959;51.328;7.322;2022-10-19T06:20:01;15.00;;;3.37;;
21593;SDS011;10959;51.328;7.322;2022-10-19T06:22:28;94.90;;;7.00;;
21593;SDS011;10959;51.328;7.322;2022-10-19T06:24:55;43.40;;;4.97;;
21593;SDS011;10959;51.328;7.322;2022-10-19T06:27:21;46.13;;;4.97;;
21593;SDS011;10959;51.328;7.322;2022-10-19T06:29:48;44.43;;;5.30;;
21593;SDS011;10959;51.328;7.322;2022-10-19T06:32:16;12.13;;;3.60;;
21593;SDS011;10959;51.328;7.322;2022-10-19T06:34:42;84.03;;;8.67;;
21593;SDS011;10959;51.328;7.322;2022-10-19T06:37:09;20.60;;;3.97;;
21593;SDS011;10959;51.328;7.322;2022-10-19T06:39:35;28.20;;;4.30;;
21593;SDS011;10959;51.328;7.322;2022-10-19T06:42:02;19.40;;;4.17;;
21593;SDS011;10959;51.328;7.322;2022-10-19T06:44:28;48.77;;;5.90;;
21593;SDS011;10959;51.328;7.322;2022-10-19T06:50:04;40.47;;;6.13;;
21593;SDS011;10959;51.328;7.322;2022-10-19T06:52:31;59.57;;;8.13;;
21593;SDS011;10959;51.328;7.322;2022-10-19T06:54:58;128.77;;;12.67;;
21593;SDS011;10959;51.328;7.322;2022-10-19T06:57:25;40.83;;;6.23;;
21593;SDS011;10959;51.328;7.322;2022-10-19T06:59:52;49.00;;;6.40;;
21593;SDS011;10959;51.328;7.322;2022-10-19T07:02:19;22.03;;;5.07;;
21593;SDS011;10959;51.328;7.322;2022-10-19T07:04:46;8.37;;;4.43;;
21593;SDS011;10959;51.328;7.322;2022-10-19T07:07:13;15.90;;;4.67;;
21593;SDS011;10959;51.328;7.322;2022-10-19T07:09:40;21.50;;;4.40;;
21593;SDS011;10959;51.328;7.322;2022-10-19T07:12:06;51.90;;;6.47;;
21593;SDS011;10959;51.328;7.322;2022-10-19T07:14:34;26.83;;;5.90;;
21593;SDS011;10959;51.328;7.322;2022-10-19T07:17:03;51.23;;;6.97;;
21593;SDS011;10959;51.328;7.322;2022-10-19T07:19:29;69.10;;;7.67;;
21593;SDS011;10959;51.328;7.322;2022-10-19T07:21:56;12.40;;;4.77;;
21593;SDS011;10959;51.328;7.322;2022-10-19T07:24:24;50.43;;;7.50;;
21593;SDS011;10959;51.328;7.322;2022-10-19T07:26:51;32.37;;;5.60;;
21593;SDS011;10959;51.328;7.322;2022-10-19T07:29:18;95.03;;;12.63;;
21593;SDS011;10959;51.328;7.322;2022-10-19T07:31:44;90.63;;;13.50;;
21593;SDS011;10959;51.328;7.322;2022-10-19T07:34:11;77.60;;;10.83;;
21593;SDS011;10959;51.328;7.322;2022-10-19T07:36:39;103.07;;;11.67;;
21593;SDS011;10959;51.328;7.322;2022-10-19T07:39:09;35.53;;;8.10;;
21593;SDS011;10959;51.328;7.322;2022-10-19T07:41:37;19.03;;;7.07;;
21593;SDS011;10959;51.328;7.322;2022-10-19T07:44:04;165.60;;;19.60;;
21593;SDS011;10959;51.328;7.322;2022-10-19T07:46:31;38.43;;;9.60;;
21593;SDS011;10959;51.328;7.322;2022-10-19T07:48:59;17.43;;;6.87;;
21593;SDS011;10959;51.328;7.322;2022-10-19T07:51:26;27.13;;;7.23;;
21593;SDS011;10959;51.328;7.322;2022-10-19T07:53:53;20.10;;;7.23;;
21593;SDS011;10959;51.328;7.322;2022-10-19T07:56:20;35.20;;;8.07;;
21593;SDS011;10959;51.328;7.322;2022-10-19T07:58:49;18.83;;;6.33;;
21593;SDS011;10959;51.328;7.322;2022-10-19T08:01:18;8.83;;;5.90;;
21593;SDS011;10959;51.328;7.322;2022-10-19T08:03:45;12.13;;;6.87;;
21593;SDS011;10959;51.328;7.322;2022-10-19T08:06:14;6.37;;;5.83;;
21593;SDS011;10959;51.328;7.322;2022-10-19T08:08:43;9.70;;;6.93;;
21593;SDS011;10959;51.328;7.322;2022-10-19T08:11:11;6.13;;;5.53;;
21593;SDS011;10959;51.328;7.322;2022-10-19T08:13:38;7.90;;;6.10;;
21593;SDS011;10959;51.328;7.322;2022-10-19T08:16:16;10.87;;;7.77;;
21593;SDS011;10959;51.328;7.322;2022-10-19T08:18:46;6.90;;;5.90;;
21593;SDS011;10959;51.328;7.322;2022-10-19T08:21:13;11.37;;;10.17;;
21593;SDS011;10959;51.328;7.322;2022-10-19T08:23:40;20.07;;;17.43;;
21593;SDS011;10959;51.328;7.322;2022-10-19T08:26:06;15.73;;;11.77;;
21593;SDS011;10959;51.328;7.322;2022-10-19T08:28:33;11.50;;;8.40;;
21593;SDS011;10959;51.328;7.322;2022-10-19T08:31:08;10.07;;;8.00;;
21593;SDS011;10959;51.328;7.322;2022-10-19T08:33:36;8.37;;;7.13;;
21593;SDS011;10959;51.328;7.322;2022-10-19T08:36:03;9.03;;;7.60;;
21593;SDS011;10959;51.328;7.322;2022-10-19T08:38:30;12.57;;;7.30;;
21593;SDS011;10959;51.328;7.322;2022-10-19T08:40:57;7.30;;;6.60;;
21593;SDS011;10959;51.328;7.322;2022-10-19T08:43:31;9.30;;;6.93;;
21593;SDS011;10959;51.328;7.322;2022-10-19T08:46:03;10.63;;;8.47;;
21593;SDS011;10959;51.328;7.322;2022-10-19T08:48:44;8.80;;;7.90;;
21593;SDS011;10959;51.328;7.322;2022-10-19T08:51:11;9.37;;;7.83;;
21593;SDS011;10959;51.328;7.322;2022-10-19T08:53:39;9.50;;;7.67;;
21593;SDS011;10959;51.328;7.322;2022-10-19T08:56:14;7.80;;;7.00;;
21593;SDS011;10959;51.328;7.322;2022-10-19T08:58:53;11.13;;;8.73;;
21593;SDS011;10959;51.328;7.322;2022-10-19T09:01:31;11.30;;;7.47;;
21593;SDS011;10959;51.328;7.322;2022-10-19T09:04:03;14.00;;;8.53;;
21593;SDS011;10959;51.328;7.322;2022-10-19T09:06:33;8.23;;;7.27;;
21593;SDS011;10959;51.328;7.322;2022-10-19T09:09:05;9.83;;;6.80;;
21593;SDS011;10959;51.328;7.322;2022-10-19T09:11:39;9.67;;;7.33;;
21593;SDS011;10959;51.328;7.322;2022-10-19T09:14:09;11.57;;;7.40;;
21593;SDS011;10959;51.328;7.322;2022-10-19T09:16:42;11.10;;;7.37;;
21593;SDS011;10959;51.328;7.322;2022-10-19T09:19:11;7.27;;;6.57;;
21593;SDS011;10959;51.328;7.322;2022-10-19T09:21:44;9.53;;;6.87;;
21593;SDS011;10959;51.328;7.322;2022-10-19T09:24:17;12.93;;;7.30;;
21593;SDS011;10959;51.328;7.322;2022-10-19T09:26:52;8.17;;;7.30;;
21593;SDS011;10959;51.328;7.322;2022-10-19T09:29:23;8.80;;;6.70;;
21593;SDS011;10959;51.328;7.322;2022-10-19T09:31:56;9.80;;;6.90;;
21593;SDS011;10959;51.328;7.322;2022-10-19T09:34:27;10.20;;;6.90;;
21593;SDS011;10959;51.328;7.322;2022-10-19T09:36:57;10.80;;;7.50;;
21593;SDS011;10959;51.328;7.322;2022-10-19T09:39:25;11.10;;;6.03;;
21593;SDS011;10959;51.328;7.322;2022-10-19T09:41:53;10.23;;;5.73;;
21593;SDS011;10959;51.328;7.322;2022-10-19T09:44:21;9.13;;;6.13;;
21593;SDS011;10959;51.328;7.322;2022-10-19T09:46:50;7.60;;;5.37;;
21593;SDS011;10959;51.328;7.322;2022-10-19T09:49:37;10.53;;;5.47;;
21593;SDS011;10959;51.328;7.322;2022-10-19T09:52:09;9.70;;;5.30;;
21593;SDS011;10959;51.328;7.322;2022-10-19T09:54:49;10.13;;;4.73;;
21593;SDS011;10959;51.328;7.322;2022-10-19T09:57:24;11.50;;;4.33;;
21593;SDS011;10959;51.328;7.322;2022-10-19T09:59:51;8.07;;;4.50;;
21593;SDS011;10959;51.328;7.322;2022-10-19T10:02:18;9.57;;;4.47;;
21593;SDS011;10959;51.328;7.322;2022-10-19T10:04:54;8.73;;;4.50;;
21593;SDS011;10959;51.328;7.322;2022-10-19T10:07:24;9.57;;;4.47;;
21593;SDS011;10959;51.328;7.322;2022-10-19T10:09:57;7.40;;;4.60;;
21593;SDS011;10959;51.328;7.322;2022-10-19T10:12:24;8.13;;;4.53;;
21593;SDS011;10959;51.328;7.322;2022-10-19T10:14:51;11.20;;;4.53;;
21593;SDS011;10959;51.328;7.322;2022-10-19T10:17:20;6.90;;;4.13;;
21593;SDS011;10959;51.328;7.322;2022-10-19T10:20:03;8.37;;;3.63;;
21593;SDS011;10959;51.328;7.322;2022-10-19T10:22:43;6.87;;;3.97;;
21593;SDS011;10959;51.328;7.322;2022-10-19T10:25:18;6.93;;;3.70;;
21593;SDS011;10959;51.328;7.322;2022-10-19T10:27:52;7.57;;;4.17;;
21593;SDS011;10959;51.328;7.322;2022-10-19T10:30:20;9.17;;;4.30;;
21593;SDS011;10959;51.328;7.322;2022-10-19T10:32:48;8.33;;;3.40;;
21593;SDS011;10959;51.328;7.322;2022-10-19T10:35:18;8.50;;;3.70;;
21593;SDS011;10959;51.328;7.322;2022-10-19T10:37:48;8.10;;;3.53;;
21593;SDS011;10959;51.328;7.322;2022-10-19T10:40:18;7.53;;;3.57;;
21593;SDS011;10959;51.328;7.322;2022-10-19T10:42:46;7.63;;;3.60;;
21593;SDS011;10959;51.328;7.322;2022-10-19T10:45:16;6.83;;;3.23;;
21593;SDS011;10959;51.328;7.322;2022-10-19T10:47:45;6.83;;;2.47;;
21593;SDS011;10959;51.328;7.322;2022-10-19T10:50:20;5.87;;;2.83;;
21593;SDS011;10959;51.328;7.322;2022-10-19T10:52:55;6.00;;;2.40;;
21593;SDS011;10959;51.328;7.322;2022-10-19T10:55:23;4.13;;;2.63;;
21593;SDS011;10959;51.328;7.322;2022-10-19T10:57:50;6.67;;;2.93;;
21593;SDS011;10959;51.328;7.322;2022-10-19T11:00:23;8.80;;;3.20;;
21593;SDS011;10959;51.328;7.322;2022-10-19T11:02:51;5.17;;;2.60;;
21593;SDS011;10959;51.328;7.322;2022-10-19T11:05:23;8.37;;;2.53;;
21593;SDS011;10959;51.328;7.322;2022-10-19T11:07:52;5.70;;;2.17;;
21593;SDS011;10959;51.328;7.322;2022-10-19T11:10:25;7.17;;;2.73;;
21593;SDS011;10959;51.328;7.322;2022-10-19T11:12:57;3.57;;;1.90;;
21593;SDS011;10959;51.328;7.322;2022-10-19T11:15:29;5.90;;;2.27;;
21593;SDS011;10959;51.328;7.322;2022-10-19T11:18:03;6.07;;;2.07;;
21593;SDS011;10959;51.328;7.322;2022-10-19T11:20:40;7.10;;;2.10;;
21593;SDS011;10959;51.328;7.322;2022-10-19T11:23:13;7.17;;;2.30;;
21593;SDS011;10959;51.328;7.322;2022-10-19T11:25:48;5.93;;;2.10;;
21593;SDS011;10959;51.328;7.322;2022-10-19T11:28:40;3.40;;;1.87;;
21593;SDS011;10959;51.328;7.322;2022-10-19T11:31:20;7.60;;;2.17;;
21593;SDS011;10959;51.328;7.322;2022-10-19T11:33:53;4.13;;;1.60;;
21593;SDS011;10959;51.328;7.322;2022-10-19T11:36:32;4.57;;;1.50;;
21593;SDS011;10959;51.328;7.322;2022-10-19T11:42:11;4.27;;;1.47;;
21593;SDS011;10959;51.328;7.322;2022-10-19T11:44:46;4.83;;;1.63;;
21593;SDS011;10959;51.328;7.322;2022-10-19T11:47:29;3.13;;;1.30;;
21593;SDS011;10959;51.328;7.322;2022-10-19T11:50:09;5.37;;;2.17;;
21593;SDS011;10959;51.328;7.322;2022-10-19T11:52:46;5.70;;;2.10;;
21593;SDS011;10959;51.328;7.322;2022-10-19T11:55:22;3.53;;;1.60;;
21593;SDS011;10959;51.328;7.322;2022-10-19T11:58:02;3.77;;;1.90;;
21593;SDS011;10959;51.328;7.322;2022-10-19T12:00:38;6.03;;;2.10;;
21593;SDS011;10959;51.328;7.322;2022-10-19T12:03:22;3.23;;;1.57;;
21593;SDS011;10959;51.328;7.322;2022-10-19T12:06:05;4.03;;;1.70;;
21593;SDS011;10959;51.328;7.322;2022-10-19T12:08:44;3.03;;;1.67;;
21593;SDS011;10959;51.328;7.322;2022-10-19T12:11:25;4.97;;;1.90;;
21593;SDS011;10959;51.328;7.322;2022-10-19T12:13:59;5.33;;;1.63;;
21593;SDS011;10959;51.328;7.322;2022-10-19T12:16:33;2.90;;;1.50;;
21593;SDS011;10959;51.328;7.322;2022-10-19T12:19:03;6.13;;;2.10;;
21593;SDS011;10959;51.328;7.322;2022-10-19T12:21:32;4.63;;;1.43;;
21593;SDS011;10959;51.328;7.322;2022-10-19T12:24:02;4.53;;;1.30;;
21593;SDS011;10959;51.328;7.322;2022-10-19T12:26:36;6.40;;;1.70;;
21593;SDS011;10959;51.328;7.322;2022-10-19T12:29:03;5.43;;;1.80;;
21593;SDS011;10959;51.328;7.322;2022-10-19T12:31:32;4.10;;;1.70;;
21593;SDS011;10959;51.328;7.322;2022-10-19T12:34:01;5.80;;;1.87;;
21593;SDS011;10959;51.328;7.322;2022-10-19T12:36:35;4.20;;;1.37;;
21593;SDS011;10959;51.328;7.322;2022-10-19T12:39:14;6.30;;;1.70;;
21593;SDS011;10959;51.328;7.322;2022-10-19T12:41:50;3.87;;;1.43;;
21593;SDS011;10959;51.328;7.322;2022-10-19T12:44:41;2.87;;;1.43;;
21593;SDS011;10959;51.328;7.322;2022-10-19T12:47:30;4.07;;;2.03;;
21593;SDS011;10959;51.328;7.322;2022-10-19T12:49:57;4.43;;;1.30;;
21593;SDS011;10959;51.328;7.322;2022-10-19T12:52:34;5.90;;;1.80;;
21593;SDS011;10959;51.328;7.322;2022-10-19T12:57:58;5.27;;;1.40;;
21593;SDS011;10959;51.328;7.322;2022-10-19T13:00:27;4.80;;;1.50;;
21593;SDS011;10959;51.328;7.322;2022-10-19T13:02:56;4.57;;;1.83;;
21593;SDS011;10959;51.328;7.322;2022-10-19T13:05:27;6.17;;;2.43;;
21593;SDS011;10959;51.328;7.322;2022-10-19T13:07:55;3.10;;;1.20;;
21593;SDS011;10959;51.328;7.322;2022-10-19T13:10:23;5.07;;;1.60;;
21593;SDS011;10959;51.328;7.322;2022-10-19T13:12:53;4.73;;;1.83;;
21593;SDS011;10959;51.328;7.322;2022-10-19T13:18:59;6.83;;;2.23;;
21593;SDS011;10959;51.328;7.322;2022-10-19T13:21:48;4.57;;;1.40;;
21593;SDS011;10959;51.328;7.322;2022-10-19T13:29:52;6.63;;;1.87;;
21593;SDS011;10959;51.328;7.322;2022-10-19T13:32:29;3.40;;;1.43;;
21593;SDS011;10959;51.328;7.322;2022-10-19T13:35:23;4.53;;;1.73;;
21593;SDS011;10959;51.328;7.322;2022-10-19T13:40:54;3.90;;;1.87;;
21593;SDS011;10959;51.328;7.322;2022-10-19T13:43:25;6.00;;;1.67;;
21593;SDS011;10959;51.328;7.322;2022-10-19T13:45:57;6.43;;;1.40;;
21593;SDS011;10959;51.328;7.322;2022-10-19T13:48:31;3.40;;;1.43;;
21593;SDS011;10959;51.328;7.322;2022-10-19T13:51:08;3.90;;;1.27;;
21593;SDS011;10959;51.328;7.322;2022-10-19T13:53:45;6.07;;;1.70;;
21593;SDS011;10959;51.328;7.322;2022-10-19T13:56:22;3.77;;;1.27;;
21593;SDS011;10959;51.328;7.322;2022-10-19T14:05:12;3.87;;;1.53;;
21593;SDS011;10959;51.328;7.322;2022-10-19T14:07:52;5.47;;;1.47;;
21593;SDS011;10959;51.328;7.322;2022-10-19T14:10:28;5.47;;;1.77;;
21593;SDS011;10959;51.328;7.322;2022-10-19T14:12:56;4.33;;;1.60;;
21593;SDS011;10959;51.328;7.322;2022-10-19T14:15:25;3.87;;;1.60;;
21593;SDS011;10959;51.328;7.322;2022-10-19T14:17:55;3.57;;;1.60;;
21593;SDS011;10959;51.328;7.322;2022-10-19T14:20:27;8.37;;;1.50;;
21593;SDS011;10959;51.328;7.322;2022-10-19T14:22:55;3.97;;;1.40;;
21593;SDS011;10959;51.328;7.322;2022-10-19T14:25:22;2.93;;;1.23;;
21593;SDS011;10959;51.328;7.322;2022-10-19T14:27:53;3.60;;;1.37;;
21593;SDS011;10959;51.328;7.322;2022-10-19T14:30:24;4.03;;;1.40;;
21593;SDS011;10959;51.328;7.322;2022-10-19T14:32:52;3.70;;;1.70;;
21593;SDS011;10959;51.328;7.322;2022-10-19T14:35:21;2.83;;;1.40;;
21593;SDS011;10959;51.328;7.322;2022-10-19T14:37:52;4.43;;;1.13;;
21593;SDS011;10959;51.328;7.322;2022-10-19T14:40:22;3.43;;;1.47;;
21593;SDS011;10959;51.328;7.322;2022-10-19T14:42:51;2.63;;;1.43;;
21593;SDS011;10959;51.328;7.322;2022-10-19T14:45:19;3.90;;;1.40;;
21593;SDS011;10959;51.328;7.322;2022-10-19T14:47:55;3.63;;;1.50;;
21593;SDS011;10959;51.328;7.322;2022-10-19T14:50:26;3.10;;;1.53;;
21593;SDS011;10959;51.328;7.322;2022-10-19T14:53:01;4.07;;;1.50;;
21593;SDS011;10959;51.328;7.322;2022-10-19T14:55:38;3.37;;;1.30;;
21593;SDS011;10959;51.328;7.322;2022-10-19T14:58:08;3.93;;;1.60;;
21593;SDS011;10959;51.328;7.322;2022-10-19T15:00:40;3.83;;;1.70;;
21593;SDS011;10959;51.328;7.322;2022-10-19T15:03:10;4.57;;;1.90;;
21593;SDS011;10959;51.328;7.322;2022-10-19T15:05:45;5.17;;;1.63;;
21593;SDS011;10959;51.328;7.322;2022-10-19T15:08:16;5.03;;;1.73;;
21593;SDS011;10959;51.328;7.322;2022-10-19T15:10:46;3.17;;;1.47;;
21593;SDS011;10959;51.328;7.322;2022-10-19T15:13:16;4.83;;;1.40;;
21593;SDS011;10959;51.328;7.322;2022-10-19T15:15:49;2.63;;;1.50;;
21593;SDS011;10959;51.328;7.322;2022-10-19T15:18:18;6.60;;;1.70;;
21593;SDS011;10959;51.328;7.322;2022-10-19T15:20:58;4.60;;;1.43;;
21593;SDS011;10959;51.328;7.322;2022-10-19T15:23:35;3.80;;;1.67;;
21593;SDS011;10959;51.328;7.322;2022-10-19T15:26:11;6.43;;;1.80;;
21593;SDS011;10959;51.328;7.322;2022-10-19T15:28:41;3.70;;;1.60;;
21593;SDS011;10959;51.328;7.322;2022-10-19T15:31:12;4.90;;;1.80;;
21593;SDS011;10959;51.328;7.322;2022-10-19T15:33:42;4.57;;;1.40;;